Terminal Aerodrome Forecast
Issued by NWS Cleveland, OH

Home | Current Version | Previous Version | Text Only | Print | Product List | Glossary On
Versions: 1 2 3 4 5 6 7 8 9 10 11 12 13 14 15 16 17 18
000
FTUS41 KCLE 261100
TAFCAK
TAF
KCAK 261120Z 2612/2712 02010KT P6SM SCT250
     FM261500 01011KT P6SM SCT045
     FM270000 35009KT P6SM SCT050 BKN120
     FM270200 33004KT P6SM BKN050
     FM271100 30006KT P6SM OVC025=

USA.gov is the U.S. government's official web portal to all federal, state and local government web resources and services.